This is the latest recevied weather packets stored in our database for station/object F5PQL-4. If no packets are shown the sender has not sent any weather packets the latest 10 day(s).
| Time | Temp. | Humidity | Pressure | Rain* | Wind** | Luminosity | Snow |
|---|---|---|---|---|---|---|---|
| 1777874792 | 13.89° C | 67% | 1015 hPa | - | - | - | - |
| 1777873892 | 14.44° C | 66% | 1015.1 hPa | - | - | - | - |
| 1777872992 | 13.89° C | 66% | 1014.9 hPa | - | - | - | - |
| 1777872092 | 13.89° C | 65% | 1014.8 hPa | - | - | - | - |
| 1777871192 | 14.44° C | 65% | 1014.7 hPa | - | - | - | - |
| 1777870291 | 14.44° C | 63% | 1014.8 hPa | - | - | - | - |
| 1777869391 | 15° C | 62% | 1014.5 hPa | - | - | - | - |
| 1777868491 | 15° C | 63% | 1014.4 hPa | - | - | - | - |
| 1777867591 | 14.44° C | 64% | 1014.4 hPa | - | - | - | - |
| 1777866691 | 14.44° C | 62% | 1014.3 hPa | - | - | - | - |
| 1777865791 | 14.44° C | 62% | 1014.4 hPa | - | - | - | - |
| 1777864891 | 14.44° C | 61% | 1014.5 hPa | - | - | - | - |
| 1777863991 | 14.44° C | 59% | 1014.7 hPa | - | - | - | - |
| 1777863090 | 15° C | 55% | 1014.6 hPa | - | - | - | - |
| 1777862190 | 15° C | 52% | 1014.7 hPa | - | - | - | - |
| 1777861290 | 16.11° C | 47% | 1014.7 hPa | - | - | - | - |
| 1777860390 | 17.22° C | 44% | 1014.7 hPa | - | - | - | - |
| 1777859490 | 17.22° C | 44% | 1014.7 hPa | - | - | - | - |
| 1777858590 | 17.22° C | 43% | 1014.6 hPa | - | - | - | - |
| 1777857690 | 17.22° C | 43% | 1014.5 hPa | - | - | - | - |
| 1777856790 | 17.22° C | 43% | 1014.5 hPa | - | - | - | - |
| 1777855890 | 17.22° C | 42% | 1014.7 hPa | - | - | - | - |
| 1777854989 | 17.78° C | 41% | 1014.7 hPa | - | - | - | - |
| 1777854090 | 17.78° C | 41% | 1014.8 hPa | - | - | - | - |
| 1777853189 | 18.33° C | 40% | 1014.8 hPa | - | - | - | - |
* Rain since midnight (hover to see other rain measurements)
** Current wind speed in m/s (hover to see current wind gust speed)